Time;durP1;ratioP1;P1;durP2;ratioP2;P2;SDS_P1;SDS_P2;PMS_P1;PMS_P2;Temp;Humidity;BMP_temperature;BMP_pressure;BME280_temperature;BME280_humidity;BME280_pressure;Samples;Min_cycle;Max_cycle;Signal;HPM_P1;HPM_P2
2022/08/16 00:00:43;;;;;;;0.30;0.30;;;10.80;99.90;;;;;;5037159;28;20029;-78
2022/08/16 00:03:11;;;;;;;0.30;0.30;;;10.80;99.90;;;;;;5037014;28;20069;-78
2022/08/16 00:05:39;;;;;;;0.85;0.40;;;10.90;99.90;;;;;;5036996;28;20029;-78
2022/08/16 00:08:06;;;;;;;0.38;0.38;;;10.90;99.90;;;;;;5036978;28;20029;-78
2022/08/16 00:10:46;;;;;;;0.52;0.40;;;10.90;99.90;;;;;;5036822;28;20025;-78
2022/08/16 00:13:13;;;;;;;1.27;0.50;;;11.00;99.90;;;;;;5036801;28;20511;-77
2022/08/16 00:15:45;;;;;;;0.70;0.30;;;11.10;99.90;;;;;;5037026;28;20060;-78
2022/08/16 00:18:14;;;;;;;0.20;0.20;;;11.10;99.90;;;;;;5036659;28;20022;-78
2022/08/16 00:20:44;;;;;;;0.30;0.30;;;11.20;99.90;;;;;;5036845;28;20508;-79
2022/08/16 00:23:13;;;;;;;0.73;0.40;;;11.20;99.90;;;;;;5036884;28;20021;-79
2022/08/16 00:25:40;;;;;;;0.88;0.40;;;11.30;99.90;;;;;;5036679;28;20117;-79
2022/08/16 00:28:08;;;;;;;0.52;0.20;;;11.30;99.90;;;;;;5036777;28;20026;-79
2022/08/16 00:30:35;;;;;;;1.75;0.50;;;11.50;99.90;;;;;;5036694;28;20108;-79
2022/08/16 00:33:03;;;;;;;0.40;0.40;;;11.50;99.90;;;;;;5036692;28;20393;-80
2022/08/16 00:35:34;;;;;;;0.30;0.30;;;11.60;99.90;;;;;;5036618;28;20029;-80
2022/08/16 00:38:03;;;;;;;0.30;0.30;;;11.70;99.90;;;;;;5036725;28;20356;-78
2022/08/16 00:40:45;;;;;;;0.45;0.30;;;11.70;99.90;;;;;;5036546;28;20026;-77
2022/08/16 00:43:17;;;;;;;0.40;0.40;;;11.70;99.90;;;;;;5036342;28;20054;-78
2022/08/16 00:46:02;;;;;;;0.55;0.30;;;11.90;99.90;;;;;;5036271;28;20612;-79
2022/08/16 00:48:31;;;;;;;1.13;0.40;;;11.90;99.90;;;;;;5036846;28;20340;-78
2022/08/16 00:51:00;;;;;;;0.73;0.30;;;12.10;99.90;;;;;;5036115;28;20418;-76
2022/08/16 00:53:28;;;;;;;0.20;0.20;;;12.10;99.90;;;;;;5018238;28;20444;-78
2022/08/16 00:55:59;;;;;;;1.38;0.30;;;12.10;99.90;;;;;;5018394;28;20021;-79
2022/08/16 00:58:30;;;;;;;0.22;0.20;;;12.20;99.90;;;;;;5036255;28;20017;-79
2022/08/16 01:00:58;;;;;;;2.17;0.30;;;12.20;99.90;;;;;;5036257;28;20466;-78
2022/08/16 01:03:27;;;;;;;0.40;0.20;;;12.20;99.90;;;;;;5035858;28;20045;-79
2022/08/16 01:05:55;;;;;;;1.40;0.43;;;12.20;99.90;;;;;;5036271;28;20497;-78
2022/08/16 01:08:25;;;;;;;0.50;0.20;;;12.30;99.90;;;;;;5035783;28;20033;-79
2022/08/16 01:10:54;;;;;;;0.28;0.20;;;12.40;99.90;;;;;;5035945;28;20475;-79
2022/08/16 01:13:27;;;;;;;0.70;0.20;;;12.50;99.90;;;;;;5035694;28;20112;-78
2022/08/16 01:16:01;;;;;;;0.17;0.17;;;12.60;99.90;;;;;;5036061;28;20140;-78
2022/08/16 01:18:38;;;;;;;0.30;0.30;;;12.70;99.90;;;;;;5018325;28;20386;-79
2022/08/16 01:21:11;;;;;;;0.20;0.20;;;12.70;99.90;;;;;;5035786;28;20021;-79
2022/08/16 01:24:05;;;;;;;0.20;0.20;;;12.80;99.90;;;;;;5035693;28;20129;-81
2022/08/16 01:26:34;;;;;;;1.83;0.20;;;12.80;99.90;;;;;;5035561;28;20471;-81
2022/08/16 01:29:12;;;;;;;0.30;0.30;;;12.80;99.90;;;;;;5035479;28;20481;-82
2022/08/16 01:31:40;;;;;;;0.38;0.30;;;12.90;99.90;;;;;;5035488;28;20083;-78
2022/08/16 01:34:10;;;;;;;0.43;0.30;;;13.00;99.90;;;;;;5017603;28;20383;-79
2022/08/16 01:36:38;;;;;;;0.60;0.30;;;13.00;99.90;;;;;;5017848;28;20056;-80
2022/08/16 01:39:14;;;;;;;0.30;0.30;;;13.10;99.90;;;;;;5035164;28;20057;-80
2022/08/16 01:41:42;;;;;;;0.20;0.15;;;13.10;99.90;;;;;;5035362;28;20020;-80
2022/08/16 01:44:10;;;;;;;0.50;0.30;;;13.20;99.90;;;;;;5035286;28;20017;-83
2022/08/16 01:46:46;;;;;;;0.20;0.20;;;13.30;99.90;;;;;;5035054;28;20129;-80
2022/08/16 01:49:17;;;;;;;0.25;0.22;;;13.40;99.90;;;;;;5035169;28;20433;-80
2022/08/16 01:51:48;;;;;;;0.20;0.20;;;13.60;99.90;;;;;;5034838;28;20029;-80
2022/08/16 01:54:15;;;;;;;0.25;0.22;;;13.60;99.90;;;;;;5035212;28;20139;-79
2022/08/16 01:56:43;;;;;;;0.30;0.30;;;13.60;99.90;;;;;;5034976;28;20013;-79
2022/08/16 01:59:13;;;;;;;1.27;0.40;;;13.60;99.90;;;;;;5034751;28;20071;-79
2022/08/16 02:01:41;;;;;;;0.15;0.15;;;13.60;99.90;;;;;;5034547;28;20037;-77
2022/08/16 02:04:09;;;;;;;0.10;0.10;;;13.60;99.90;;;;;;5035145;28;20025;-79
2022/08/16 02:06:40;;;;;;;0.60;0.30;;;13.60;99.90;;;;;;5034570;28;20061;-80
2022/08/16 02:09:09;;;;;;;0.73;0.30;;;13.70;99.90;;;;;;5034501;28;20049;-81
2022/08/16 02:11:37;;;;;;;1.40;0.43;;;13.80;99.90;;;;;;5034826;28;20029;-80
2022/08/16 02:14:05;;;;;;;0.50;0.43;;;13.90;99.90;;;;;;5017065;28;20026;-80
2022/08/16 02:16:33;;;;;;;0.28;0.20;;;14.00;99.90;;;;;;5034640;28;20028;-80
2022/08/16 02:19:00;;;;;;;0.80;0.20;;;14.00;99.90;;;;;;5034686;28;20056;-80
2022/08/16 02:21:27;;;;;;;3.83;0.35;;;14.10;99.90;;;;;;5034621;28;20125;-80
2022/08/16 02:23:55;;;;;;;0.47;0.30;;;14.30;99.90;;;;;;5034595;28;20528;-80
2022/08/16 02:26:22;;;;;;;0.88;0.30;;;14.40;99.90;;;;;;5034602;28;20041;-80
2022/08/16 02:28:50;;;;;;;0.40;0.30;;;14.50;99.90;;;;;;5034334;28;20021;-79
2022/08/16 02:31:17;;;;;;;0.82;0.40;;;14.60;99.90;;;;;;5034323;28;20383;-79
2022/08/16 02:33:44;;;;;;;0.65;0.40;;;14.70;99.90;;;;;;5034316;28;20032;-79
2022/08/16 02:36:13;;;;;;;0.20;0.20;;;14.60;99.90;;;;;;5034401;28;20029;-79
2022/08/16 02:38:40;;;;;;;0.30;0.30;;;14.60;99.90;;;;;;5034259;28;20024;-79
2022/08/16 02:41:09;;;;;;;0.30;0.30;;;14.50;99.90;;;;;;5034073;28;20077;-80
2022/08/16 02:43:37;;;;;;;0.57;0.57;;;14.40;99.90;;;;;;5034116;28;20065;-79
2022/08/16 02:46:06;;;;;;;1.05;0.38;;;14.30;99.90;;;;;;5034243;28;20029;-79
2022/08/16 02:48:34;;;;;;;0.47;0.30;;;14.20;99.90;;;;;;5034088;28;20100;-80
2022/08/16 02:51:04;;;;;;;0.95;0.28;;;14.20;99.90;;;;;;5033994;28;20155;-79
2022/08/16 02:53:31;;;;;;;0.70;0.20;;;14.20;99.90;;;;;;5033722;28;20041;-79
2022/08/16 02:55:59;;;;;;;0.25;0.20;;;14.20;99.90;;;;;;5033995;28;20017;-81
2022/08/16 02:58:27;;;;;;;2.00;0.20;;;14.20;99.90;;;;;;5033777;28;20132;-81
2022/08/16 03:00:56;;;;;;;1.17;0.20;;;14.20;99.90;;;;;;5033688;28;20033;-80
2022/08/16 03:03:25;;;;;;;0.30;0.20;;;14.20;99.90;;;;;;5033639;28;20060;-79
2022/08/16 03:05:53;;;;;;;1.33;0.20;;;14.20;99.90;;;;;;5033854;28;20559;-79
2022/08/16 03:08:22;;;;;;;0.55;0.30;;;14.10;99.90;;;;;;5034497;28;20029;-80
2022/08/16 03:10:49;;;;;;;0.45;0.20;;;14.10;99.90;;;;;;5033435;28;20033;-79
2022/08/16 03:13:18;;;;;;;0.80;0.30;;;14.10;99.90;;;;;;5033492;28;20048;-81
2022/08/16 03:15:47;;;;;;;0.55;0.20;;;14.10;99.90;;;;;;5033571;28;20031;-80
2022/08/16 03:18:14;;;;;;;0.20;0.10;;;14.10;99.90;;;;;;5033329;28;20056;-79
2022/08/16 03:20:41;;;;;;;0.28;0.20;;;14.10;99.90;;;;;;5032757;28;20086;-80
2022/08/16 03:23:09;;;;;;;0.25;0.20;;;14.10;99.90;;;;;;5033484;28;20437;-80
2022/08/16 03:25:37;;;;;;;0.20;0.20;;;14.00;99.90;;;;;;5033548;28;20038;-80
2022/08/16 03:28:06;;;;;;;0.45;0.20;;;14.00;99.90;;;;;;5033357;28;20037;-79
2022/08/16 03:30:35;;;;;;;0.10;0.10;;;13.90;99.90;;;;;;5033078;28;20075;-79
2022/08/16 03:33:04;;;;;;;0.40;0.28;;;13.90;99.90;;;;;;5033080;28;20045;-80
2022/08/16 03:35:33;;;;;;;1.75;0.20;;;13.90;99.90;;;;;;5033117;28;20021;-81
2022/08/16 03:38:04;;;;;;;0.38;0.30;;;13.90;99.90;;;;;;5033102;28;20060;-79
2022/08/16 03:40:36;;;;;;;0.95;0.22;;;14.10;99.90;;;;;;5033356;28;20017;-81
2022/08/16 03:43:06;;;;;;;0.30;0.30;;;14.20;99.90;;;;;;5033450;28;20049;-80
2022/08/16 03:45:35;;;;;;;0.20;0.20;;;14.20;99.90;;;;;;5033696;28;20030;-76
2022/08/16 03:48:03;;;;;;;4.03;0.20;;;14.20;99.90;;;;;;5033297;28;20021;-79
2022/08/16 03:50:31;;;;;;;0.30;0.20;;;14.30;99.90;;;;;;5033335;28;20052;-80
2022/08/16 03:52:59;;;;;;;0.25;0.10;;;14.40;99.90;;;;;;5033256;28;20025;-80
2022/08/16 03:55:27;;;;;;;2.28;0.30;;;14.60;99.90;;;;;;5033011;28;20112;-80
2022/08/16 03:57:54;;;;;;;0.13;0.10;;;14.60;99.90;;;;;;5032982;28;20022;-80
2022/08/16 04:00:26;;;;;;;0.47;0.22;;;14.60;99.90;;;;;;5032934;28;20037;-81
2022/08/16 04:02:56;;;;;;;1.02;0.20;;;14.60;99.90;;;;;;5033183;28;20414;-79
2022/08/16 04:05:24;;;;;;;0.35;0.20;;;14.70;99.90;;;;;;5033136;28;20494;-80
2022/08/16 04:07:51;;;;;;;2.85;0.20;;;14.80;99.90;;;;;;5033166;28;20025;-79
2022/08/16 04:10:18;;;;;;;0.25;0.13;;;14.90;99.90;;;;;;5033001;28;20037;-80
2022/08/16 04:12:46;;;;;;;0.88;0.30;;;14.90;99.90;;;;;;5032838;28;20096;-80
2022/08/16 04:15:16;;;;;;;1.75;0.20;;;14.90;99.90;;;;;;5032941;28;20029;-79
2022/08/16 04:17:44;;;;;;;0.75;0.30;;;14.90;99.90;;;;;;5032967;28;20092;-80
2022/08/16 04:20:13;;;;;;;0.20;0.20;;;14.90;99.90;;;;;;5033018;28;20203;-79
2022/08/16 04:22:44;;;;;;;0.30;0.20;;;14.90;99.90;;;;;;5033150;28;20028;-81
2022/08/16 04:25:12;;;;;;;0.30;0.30;;;14.90;99.90;;;;;;5032927;28;20521;-80
2022/08/16 04:27:40;;;;;;;0.20;0.20;;;14.90;99.90;;;;;;5032762;28;20497;-79
2022/08/16 04:30:12;;;;;;;0.30;0.20;;;14.80;99.90;;;;;;5033245;28;20380;-80
2022/08/16 04:32:40;;;;;;;3.10;0.30;;;14.80;99.80;;;;;;5036478;28;20032;-80
2022/08/16 04:35:11;;;;;;;0.52;0.20;;;14.80;99.90;;;;;;5036574;28;20470;-81
2022/08/16 04:37:38;;;;;;;1.35;0.22;;;14.60;99.90;;;;;;5036578;28;20109;-80
2022/08/16 04:40:08;;;;;;;0.65;0.20;;;14.60;99.90;;;;;;5036337;28;20018;-80
2022/08/16 04:42:39;;;;;;;0.10;0.10;;;14.50;99.90;;;;;;5036505;28;20112;-78
2022/08/16 04:45:09;;;;;;;3.80;0.25;;;14.50;99.90;;;;;;5036548;28;20022;-80
2022/08/16 04:47:37;;;;;;;1.45;0.20;;;14.50;99.90;;;;;;5036547;28;20021;-80
2022/08/16 04:50:12;;;;;;;0.70;0.35;;;14.70;99.90;;;;;;5036315;28;20109;-80
2022/08/16 04:52:40;;;;;;;0.80;0.25;;;14.70;99.90;;;;;;5036496;28;20021;-81
2022/08/16 04:55:14;;;;;;;2.15;0.32;;;14.70;99.90;;;;;;5036148;28;20057;-79
2022/08/16 04:57:42;;;;;;;0.93;0.20;;;14.70;99.90;;;;;;5036222;28;20053;-82
2022/08/16 05:00:18;;;;;;;0.90;0.20;;;14.70;99.90;;;;;;5036082;28;20053;-80
2022/08/16 05:02:47;;;;;;;0.73;0.40;;;14.60;99.90;;;;;;5035942;28;20132;-80
2022/08/16 05:05:15;;;;;;;0.63;0.35;;;14.40;99.90;;;;;;5036353;28;20057;-80
2022/08/16 05:07:42;;;;;;;0.75;0.20;;;14.30;99.90;;;;;;5036024;28;20029;-76
2022/08/16 05:10:10;;;;;;;0.90;0.20;;;14.30;99.90;;;;;;5035740;28;20109;-75
2022/08/16 05:12:38;;;;;;;0.20;0.20;;;14.20;99.90;;;;;;5035932;28;20049;-81
2022/08/16 05:15:07;;;;;;;0.93;0.40;;;14.20;99.90;;;;;;5036216;28;20112;-82
2022/08/16 05:17:35;;;;;;;4.93;0.60;;;14.20;99.90;;;;;;5035678;28;20018;-79
2022/08/16 05:20:03;;;;;;;0.75;0.10;;;14.20;99.90;;;;;;5035736;28;20025;-79
2022/08/16 05:22:31;;;;;;;0.57;0.30;;;14.20;99.90;;;;;;5035765;28;20053;-78
2022/08/16 05:25:02;;;;;;;1.42;0.43;;;14.20;99.90;;;;;;5035557;28;20041;-82
2022/08/16 05:27:29;;;;;;;0.43;0.25;;;14.40;99.90;;;;;;5035601;28;20029;-80
2022/08/16 05:29:56;;;;;;;1.10;0.50;;;14.40;99.90;;;;;;5035630;28;20561;-83
2022/08/16 05:32:24;;;;;;;1.08;0.30;;;14.50;99.90;;;;;;5035406;28;20410;-82
2022/08/16 05:34:51;;;;;;;0.80;0.43;;;14.60;99.90;;;;;;5035535;28;20032;-81
2022/08/16 05:37:22;;;;;;;1.65;0.40;;;14.60;99.90;;;;;;5035788;28;20147;-77
2022/08/16 05:39:50;;;;;;;0.32;0.30;;;14.60;99.90;;;;;;5035521;28;20071;-76
2022/08/16 05:42:17;;;;;;;1.10;0.60;;;14.60;99.90;;;;;;5034290;28;20060;-80
2022/08/16 05:44:44;;;;;;;0.80;0.52;;;14.60;99.90;;;;;;5035502;28;20017;-80
2022/08/16 05:47:12;;;;;;;3.05;0.57;;;14.70;99.90;;;;;;5035015;28;20041;-82
2022/08/16 05:49:39;;;;;;;0.85;0.68;;;14.60;99.90;;;;;;5017845;28;20057;-79
2022/08/16 05:52:10;;;;;;;3.17;0.35;;;14.60;99.90;;;;;;5034932;28;20036;-75
2022/08/16 05:54:38;;;;;;;0.30;0.20;;;14.70;99.90;;;;;;5035322;28;20409;-81
2022/08/16 05:57:06;;;;;;;0.32;0.30;;;14.60;99.90;;;;;;5035193;28;20045;-80
2022/08/16 05:59:36;;;;;;;0.40;0.32;;;14.60;99.90;;;;;;5034947;28;20025;-82
2022/08/16 06:02:05;;;;;;;0.57;0.30;;;14.50;99.90;;;;;;5034877;28;20416;-79
2022/08/16 06:04:33;;;;;;;0.35;0.22;;;14.40;99.90;;;;;;5034685;28;20021;-81
2022/08/16 06:07:04;;;;;;;0.52;0.30;;;14.30;99.90;;;;;;5035000;28;20479;-80
2022/08/16 06:09:32;;;;;;;2.47;0.30;;;14.30;99.90;;;;;;5034504;28;20025;-78
2022/08/16 06:12:00;;;;;;;2.22;0.30;;;14.20;99.90;;;;;;5034463;28;20034;-78
2022/08/16 06:14:30;;;;;;;3.58;0.98;;;14.10;99.90;;;;;;5034767;28;20026;-81
2022/08/16 06:16:58;;;;;;;1.10;0.35;;;14.10;99.90;;;;;;5035033;28;20022;-76
2022/08/16 06:19:25;;;;;;;0.22;0.20;;;14.10;99.90;;;;;;5016713;28;20076;-80
2022/08/16 06:21:52;;;;;;;0.52;0.30;;;14.00;99.90;;;;;;5034236;28;20159;-78
2022/08/16 06:24:20;;;;;;;0.20;0.20;;;14.00;99.90;;;;;;5034466;28;20026;-77
2022/08/16 06:26:47;;;;;;;0.20;0.20;;;14.00;99.90;;;;;;5016670;28;20036;-81
2022/08/16 06:29:14;;;;;;;0.82;0.30;;;13.90;99.90;;;;;;5034372;28;20204;-78
2022/08/16 06:31:42;;;;;;;0.47;0.30;;;13.90;99.90;;;;;;5034454;28;20083;-79
2022/08/16 06:34:15;;;;;;;0.57;0.40;;;13.90;99.90;;;;;;5034498;28;20057;-79
2022/08/16 06:36:42;;;;;;;0.45;0.30;;;13.90;99.90;;;;;;5034081;28;20064;-80
2022/08/16 06:39:10;;;;;;;0.63;0.50;;;13.80;99.90;;;;;;5034006;28;20497;-77
2022/08/16 06:41:37;;;;;;;0.43;0.30;;;13.80;99.90;;;;;;5034167;28;20386;-79
2022/08/16 06:44:04;;;;;;;3.20;0.40;;;13.80;99.90;;;;;;5034280;28;20118;-77
2022/08/16 06:46:37;;;;;;;0.50;0.43;;;13.80;99.90;;;;;;5034145;28;20036;-77
2022/08/16 06:49:08;;;;;;;1.00;0.30;;;13.70;99.90;;;;;;5034161;28;20072;-81
2022/08/16 06:51:36;;;;;;;5.00;0.45;;;13.70;99.90;;;;;;5016400;28;20030;-78
2022/08/16 06:54:05;;;;;;;0.50;0.35;;;13.60;99.90;;;;;;5033794;28;20024;-81
2022/08/16 06:56:33;;;;;;;1.20;0.20;;;13.60;99.90;;;;;;5033895;28;20112;-81
2022/08/16 06:59:01;;;;;;;0.45;0.40;;;13.50;99.90;;;;;;5033834;28;20033;-81
2022/08/16 07:01:28;;;;;;;0.52;0.35;;;13.40;99.90;;;;;;5033932;28;20048;-81
2022/08/16 07:03:58;;;;;;;0.40;0.30;;;13.30;99.90;;;;;;5033677;28;20105;-80
2022/08/16 07:06:26;;;;;;;0.90;0.38;;;13.30;99.90;;;;;;5033671;28;20033;-81
2022/08/16 07:08:53;;;;;;;0.45;0.35;;;13.20;99.90;;;;;;5033764;28;20501;-81
2022/08/16 07:11:20;;;;;;;0.38;0.30;;;13.20;99.90;;;;;;5033888;28;20036;-81
2022/08/16 07:13:49;;;;;;;1.13;0.40;;;13.20;99.90;;;;;;5033425;28;20065;-80
2022/08/16 07:16:18;;;;;;;2.33;0.40;;;13.10;99.90;;;;;;5033641;28;20384;-81
2022/08/16 07:18:46;;;;;;;0.88;0.50;;;13.10;99.90;;;;;;5033627;28;20053;-81
2022/08/16 07:21:14;;;;;;;1.13;0.40;;;13.10;99.90;;;;;;5033654;28;20017;-80
2022/08/16 07:23:45;;;;;;;0.55;0.32;;;13.00;99.90;;;;;;5033526;28;20474;-80
2022/08/16 07:26:20;;;;;;;3.03;0.40;;;13.00;99.90;;;;;;5015847;28;20090;-80
2022/08/16 07:28:47;;;;;;;2.08;0.70;;;13.00;99.90;;;;;;5033446;28;20029;-77
2022/08/16 07:31:15;;;;;;;1.20;0.70;;;13.00;99.90;;;;;;5033344;28;20402;-80
2022/08/16 07:33:43;;;;;;;2.58;0.85;;;12.90;99.90;;;;;;5033485;28;20069;-78
2022/08/16 07:36:12;;;;;;;0.82;0.55;;;12.90;99.90;;;;;;5033484;28;20037;-80
2022/08/16 07:38:42;;;;;;;1.48;0.43;;;12.80;99.90;;;;;;5033604;28;20040;-80
2022/08/16 07:41:09;;;;;;;0.38;0.28;;;12.80;99.90;;;;;;5033433;28;20029;-82
2022/08/16 07:43:37;;;;;;;2.28;0.90;;;12.70;99.90;;;;;;5033288;28;20022;-80
2022/08/16 07:46:04;;;;;;;1.80;1.27;;;12.70;99.90;;;;;;5033054;28;20355;-78
2022/08/16 07:48:31;;;;;;;2.45;1.00;;;12.60;99.90;;;;;;5033227;28;20053;-78
2022/08/16 07:50:59;;;;;;;1.58;0.60;;;12.60;99.90;;;;;;5033300;28;20477;-77
2022/08/16 07:53:33;;;;;;;1.08;0.57;;;12.60;99.90;;;;;;5032980;28;20029;-77
2022/08/16 07:56:01;;;;;;;2.42;0.77;;;12.60;99.90;;;;;;5033196;28;20033;-78
2022/08/16 07:58:29;;;;;;;0.77;0.50;;;12.50;99.90;;;;;;5033245;28;20026;-81
2022/08/16 08:00:58;;;;;;;0.70;0.50;;;12.50;99.90;;;;;;5033054;28;20033;-78
2022/08/16 08:03:25;;;;;;;2.65;1.00;;;12.50;99.90;;;;;;5032984;28;20041;-80
2022/08/16 08:05:52;;;;;;;1.27;0.95;;;12.50;99.90;;;;;;5034829;28;20080;-81
2022/08/16 08:08:19;;;;;;;1.20;0.85;;;12.50;99.90;;;;;;5037300;28;20028;-82
2022/08/16 08:10:47;;;;;;;0.85;0.50;;;12.40;99.90;;;;;;5036985;28;20022;-80
2022/08/16 08:13:15;;;;;;;2.08;0.82;;;12.50;99.90;;;;;;5036898;28;20021;-80
2022/08/16 08:15:44;;;;;;;0.85;0.50;;;12.50;99.90;;;;;;5037063;28;20022;-78
2022/08/16 08:18:12;;;;;;;0.60;0.52;;;12.50;99.90;;;;;;5037052;28;20029;-81
2022/08/16 08:20:43;;;;;;;1.85;0.90;;;12.50;99.90;;;;;;5036776;28;20037;-78
2022/08/16 08:23:12;;;;;;;1.42;0.90;;;12.50;99.90;;;;;;5036757;28;20029;-80
2022/08/16 08:25:47;;;;;;;1.38;0.70;;;12.50;99.90;;;;;;5036783;28;20041;-78
2022/08/16 08:28:15;;;;;;;1.92;0.70;;;12.50;99.90;;;;;;5019562;28;20029;-80
2022/08/16 08:30:43;;;;;;;1.15;0.85;;;12.50;99.90;;;;;;5036657;28;20021;-77
2022/08/16 08:33:11;;;;;;;2.20;0.57;;;12.40;99.90;;;;;;5036534;28;20042;-81
2022/08/16 08:35:39;;;;;;;1.52;1.05;;;12.40;99.90;;;;;;5036639;28;20025;-81
2022/08/16 08:38:07;;;;;;;2.17;1.00;;;12.30;99.90;;;;;;5036650;28;20029;-78
2022/08/16 08:40:35;;;;;;;2.05;1.25;;;12.30;99.90;;;;;;5036554;28;20022;-78
2022/08/16 08:43:03;;;;;;;1.67;0.90;;;12.30;99.90;;;;;;5036362;28;20030;-79
2022/08/16 08:45:31;;;;;;;2.10;1.20;;;12.20;99.90;;;;;;5036487;28;20474;-81
2022/08/16 08:47:58;;;;;;;1.40;0.90;;;12.20;99.90;;;;;;5036518;28;20033;-80
2022/08/16 08:50:29;;;;;;;1.40;0.77;;;12.20;99.90;;;;;;5018463;28;20466;-81
2022/08/16 08:52:57;;;;;;;1.35;0.70;;;12.20;99.90;;;;;;5036329;28;20025;-82
2022/08/16 08:55:26;;;;;;;1.65;0.73;;;12.20;99.90;;;;;;5036229;28;20025;-82
2022/08/16 08:57:54;;;;;;;3.53;0.98;;;12.20;99.90;;;;;;5036112;28;20083;-81
2022/08/16 09:00:24;;;;;;;0.95;0.80;;;12.30;99.90;;;;;;5036068;28;20036;-81
2022/08/16 09:02:51;;;;;;;0.73;0.55;;;12.30;99.90;;;;;;5036053;28;20046;-78
2022/08/16 09:05:21;;;;;;;2.90;0.90;;;12.30;99.90;;;;;;5036044;28;20026;-82
2022/08/16 09:07:49;;;;;;;1.70;0.82;;;12.30;99.90;;;;;;5036037;28;20136;-81
2022/08/16 09:10:17;;;;;;;1.75;0.85;;;12.20;99.90;;;;;;5036059;28;20426;-80
2022/08/16 09:12:46;;;;;;;3.30;1.30;;;12.20;99.90;;;;;;5035899;28;20105;-81
2022/08/16 09:15:15;;;;;;;1.88;1.20;;;12.20;99.90;;;;;;5035762;28;20116;-82
2022/08/16 09:17:43;;;;;;;6.07;1.80;;;12.10;99.90;;;;;;5034441;28;20097;-82
2022/08/16 09:20:13;;;;;;;1.58;1.23;;;12.00;99.90;;;;;;5035677;28;20426;-82
2022/08/16 09:22:41;;;;;;;2.80;1.33;;;12.00;99.90;;;;;;5036059;28;20025;-81
2022/08/16 09:25:09;;;;;;;2.67;1.35;;;11.90;99.90;;;;;;5035644;28;20030;-81
2022/08/16 09:27:36;;;;;;;3.10;1.35;;;11.90;99.90;;;;;;5035818;28;20454;-82
2022/08/16 09:30:04;;;;;;;2.78;1.75;;;11.90;99.90;;;;;;5035314;28;20108;-81
2022/08/16 09:32:32;;;;;;;2.45;1.50;;;11.80;99.90;;;;;;5035256;28;20044;-81
2022/08/16 09:35:00;;;;;;;4.55;1.40;;;11.80;99.90;;;;;;5035531;28;20061;-78
2022/08/16 09:37:32;;;;;;;2.00;1.40;;;11.70;99.90;;;;;;5035937;28;20028;-80
2022/08/16 09:40:00;;;;;;;2.88;1.10;;;11.70;99.90;;;;;;5035340;28;20040;-81
2022/08/16 09:42:28;;;;;;;3.15;1.42;;;11.60;99.90;;;;;;5035192;28;20045;-78
2022/08/16 09:44:57;;;;;;;2.17;1.00;;;11.60;99.90;;;;;;5035227;28;20021;-80
2022/08/16 09:47:24;;;;;;;5.03;1.20;;;11.60;99.90;;;;;;5035374;28;20025;-81
2022/08/16 09:49:52;;;;;;;1.50;0.98;;;11.50;99.90;;;;;;5035039;28;20360;-81
2022/08/16 09:52:19;;;;;;;1.70;1.05;;;11.50;99.90;;;;;;5034991;28;20509;-80
2022/08/16 09:54:46;;;;;;;1.33;0.85;;;11.40;99.90;;;;;;5034933;28;20091;-80
2022/08/16 09:57:14;;;;;;;2.70;0.90;;;11.40;99.90;;;;;;5035162;28;20036;-81
2022/08/16 09:59:41;;;;;;;0.60;0.50;;;11.40;99.90;;;;;;5035053;28;20104;-78
2022/08/16 10:02:09;;;;;;;3.13;0.50;;;11.30;99.90;;;;;;5034579;28;20084;-80
2022/08/16 10:04:36;;;;;;;0.80;0.65;;;11.20;99.90;;;;;;5034813;28;20040;-78
2022/08/16 10:07:05;;;;;;;1.33;0.52;;;11.20;99.90;;;;;;5035022;28;20108;-81
2022/08/16 10:09:32;;;;;;;1.73;0.85;;;11.20;99.90;;;;;;5034759;28;20021;-78
2022/08/16 10:14:45;;;;;;;0.93;0.65;;;11.10;99.90;;;;;;5034931;28;20028;-81
2022/08/16 10:17:12;;;;;;;1.33;0.70;;;11.10;99.90;;;;;;5034853;28;20552;-80
2022/08/16 10:19:39;;;;;;;2.45;0.77;;;11.10;99.90;;;;;;5034444;28;20025;-81
2022/08/16 10:22:07;;;;;;;0.75;0.60;;;11.10;99.90;;;;;;5033816;28;20038;-81
2022/08/16 10:24:34;;;;;;;1.02;0.75;;;11.00;99.90;;;;;;5033949;28;20025;-79
2022/08/16 10:27:02;;;;;;;1.00;0.60;;;11.00;99.90;;;;;;5034657;28;20042;-81
2022/08/16 10:29:29;;;;;;;0.70;0.52;;;11.00;99.90;;;;;;5013999;28;20061;-82
2022/08/16 10:31:57;;;;;;;1.90;0.65;;;10.90;99.90;;;;;;5032210;28;20038;-78
2022/08/16 10:34:24;;;;;;;1.25;0.70;;;10.90;99.90;;;;;;5033859;28;20029;-77
2022/08/16 10:36:51;;;;;;;0.40;0.40;;;10.90;99.90;;;;;;5033943;28;20020;-81
2022/08/16 10:39:18;;;;;;;0.47;0.47;;;10.90;99.90;;;;;;5035761;28;20056;-82
2022/08/16 10:41:46;;;;;;;5.75;0.77;;;10.90;99.90;;;;;;5035036;28;20116;-82
2022/08/16 10:44:14;;;;;;;2.15;1.13;;;10.90;99.90;;;;;;5034532;28;20135;-78
2022/08/16 10:46:42;;;;;;;1.92;1.20;;;10.80;99.90;;;;;;5032643;28;20032;-78
2022/08/16 10:49:11;;;;;;;1.45;0.82;;;10.80;99.90;;;;;;5033100;28;20083;-78
2022/08/16 10:51:39;;;;;;;1.95;0.80;;;10.80;99.90;;;;;;5034359;28;20022;-83
2022/08/16 10:54:07;;;;;;;2.75;0.70;;;10.80;99.90;;;;;;5032974;28;20025;-82
2022/08/16 10:56:35;;;;;;;0.80;0.70;;;10.80;99.90;;;;;;5035288;28;20033;-77
2022/08/16 10:59:02;;;;;;;1.13;0.60;;;10.70;99.90;;;;;;5031969;28;20021;-80
2022/08/16 11:01:29;;;;;;;0.98;0.70;;;10.70;99.90;;;;;;5031252;28;20038;-79
2022/08/16 11:03:57;;;;;;;4.47;0.77;;;10.70;99.90;;;;;;5033531;28;20022;-82
2022/08/16 11:06:25;;;;;;;2.67;1.10;;;10.70;99.90;;;;;;5031279;28;20048;-78
2022/08/16 11:08:57;;;;;;;1.38;0.80;;;10.60;99.90;;;;;;5030198;28;20490;-81
2022/08/16 11:11:25;;;;;;;1.42;0.80;;;10.60;99.90;;;;;;5031536;28;20029;-80
2022/08/16 11:13:52;;;;;;;1.85;0.85;;;10.60;99.90;;;;;;5011124;28;20088;-80
2022/08/16 11:16:20;;;;;;;1.48;0.77;;;10.50;99.90;;;;;;5034053;28;20386;-82
2022/08/16 11:18:47;;;;;;;3.45;0.90;;;10.50;99.90;;;;;;5034794;28;20040;-79
2022/08/16 11:21:16;;;;;;;2.45;1.10;;;10.40;99.90;;;;;;5032970;28;20049;-80
2022/08/16 11:23:43;;;;;;;1.10;0.70;;;10.40;99.90;;;;;;5033116;28;20092;-82
2022/08/16 11:26:10;;;;;;;1.75;0.75;;;10.40;99.90;;;;;;5031864;28;20033;-81
2022/08/16 11:28:38;;;;;;;1.80;0.70;;;10.40;99.90;;;;;;5032811;28;20462;-81
2022/08/16 11:31:06;;;;;;;1.55;0.90;;;10.40;99.90;;;;;;5034304;28;20021;-81
2022/08/16 11:33:33;;;;;;;2.97;0.93;;;10.40;99.90;;;;;;5033072;28;20029;-82
2022/08/16 11:36:01;;;;;;;1.48;0.80;;;10.30;99.90;;;;;;5033196;28;20041;-78
2022/08/16 11:38:29;;;;;;;1.52;0.77;;;10.30;99.90;;;;;;5032684;28;20025;-81
2022/08/16 11:41:00;;;;;;;1.13;0.80;;;10.20;99.90;;;;;;5031648;28;20414;-82
2022/08/16 11:43:37;;;;;;;1.30;0.80;;;10.20;99.90;;;;;;5031960;28;20045;-82
2022/08/16 11:46:07;;;;;;;3.00;0.98;;;10.20;99.90;;;;;;5029654;28;20033;-79
2022/08/16 11:48:35;;;;;;;1.13;0.77;;;10.10;99.90;;;;;;5030528;28;20010;-82
2022/08/16 11:51:06;;;;;;;2.00;0.80;;;10.10;99.90;;;;;;5031230;28;20026;-81
2022/08/16 11:53:33;;;;;;;2.03;0.80;;;10.10;99.90;;;;;;5031787;28;20031;-82
2022/08/16 11:56:01;;;;;;;2.40;0.80;;;10.00;99.90;;;;;;5031811;28;20088;-82
2022/08/16 11:58:30;;;;;;;1.73;0.90;;;10.00;99.90;;;;;;5033697;28;20021;-79
2022/08/16 12:00:59;;;;;;;4.20;0.80;;;10.00;99.90;;;;;;5033181;28;20486;-81
2022/08/16 12:03:33;;;;;;;1.85;1.17;;;10.00;99.90;;;;;;5029895;28;20525;-83
2022/08/16 12:06:08;;;;;;;2.92;1.10;;;10.00;99.90;;;;;;5043460;28;20037;-83
2022/08/16 12:08:35;;;;;;;1.97;1.20;;;10.00;99.90;;;;;;5038521;28;20105;-82
2022/08/16 12:11:04;;;;;;;2.85;1.10;;;10.00;99.90;;;;;;5047934;28;20785;-81
2022/08/16 12:13:32;;;;;;;3.42;1.23;;;9.90;99.90;;;;;;5045222;28;20064;-79
2022/08/16 12:16:00;;;;;;;1.50;1.13;;;9.90;99.90;;;;;;5031428;28;20501;-81
2022/08/16 12:18:27;;;;;;;2.83;1.08;;;9.90;99.90;;;;;;5033131;28;20084;-81
2022/08/16 12:20:54;;;;;;;2.45;1.02;;;9.90;99.90;;;;;;5029701;28;20066;-79
2022/08/16 12:23:22;;;;;;;1.45;0.90;;;9.90;99.90;;;;;;5032290;28;20146;-85
2022/08/16 12:25:49;;;;;;;1.20;0.98;;;9.80;99.90;;;;;;5032053;28;20040;-82
2022/08/16 12:28:17;;;;;;;2.38;1.38;;;9.80;99.90;;;;;;5028049;28;20021;-81
2022/08/16 12:30:46;;;;;;;2.33;0.85;;;9.80;99.90;;;;;;5029779;28;20025;-81
2022/08/16 12:33:16;;;;;;;0.98;0.55;;;9.70;99.90;;;;;;5030689;28;20112;-84
2022/08/16 12:35:46;;;;;;;3.08;1.10;;;9.80;99.90;;;;;;5031274;28;20078;-83
2022/08/16 12:38:14;;;;;;;1.10;0.82;;;9.70;99.90;;;;;;5028044;28;20371;-78
2022/08/16 12:40:47;;;;;;;1.15;0.70;;;9.70;99.90;;;;;;5030791;28;20021;-82
2022/08/16 12:43:16;;;;;;;4.65;0.90;;;9.70;99.90;;;;;;5028563;28;20090;-78
2022/08/16 12:45:47;;;;;;;1.05;0.65;;;9.70;99.90;;;;;;5030782;28;20029;-85
2022/08/16 12:51:08;;;;;;;2.03;0.93;;;9.70;99.90;;;;;;5032505;28;20120;-84
2022/08/16 12:53:37;;;;;;;1.02;0.60;;;9.60;99.90;;;;;;5035439;28;20021;-83
2022/08/16 12:56:06;;;;;;;0.82;0.57;;;9.50;99.90;;;;;;5035333;28;20052;-85
2022/08/16 12:58:34;;;;;;;1.65;1.00;;;9.60;99.90;;;;;;5035052;28;20032;-83
2022/08/16 13:01:02;;;;;;;1.17;0.70;;;9.60;99.90;;;;;;5035346;28;20021;-84